sensor_id;sensor_type;location;lat;lon;timestamp;P1;durP1;ratioP1;P2;durP2;ratioP2
56102;SDS011;41970;48.774;9.280;2022-08-07T00:01:30;1.93;;;1.40;;
56102;SDS011;41970;48.774;9.280;2022-08-07T00:03:56;1.40;;;1.20;;
56102;SDS011;41970;48.774;9.280;2022-08-07T00:06:22;3.93;;;1.43;;
56102;SDS011;41970;48.774;9.280;2022-08-07T00:08:48;1.83;;;1.33;;
56102;SDS011;41970;48.774;9.280;2022-08-07T00:11:14;1.77;;;1.43;;
56102;SDS011;41970;48.774;9.280;2022-08-07T00:13:40;2.40;;;1.20;;
56102;SDS011;41970;48.774;9.280;2022-08-07T00:16:08;1.40;;;1.23;;
56102;SDS011;41970;48.774;9.280;2022-08-07T00:18:34;1.53;;;1.43;;
56102;SDS011;41970;48.774;9.280;2022-08-07T00:21:01;1.30;;;1.20;;
56102;SDS011;41970;48.774;9.280;2022-08-07T00:23:30;2.17;;;1.13;;
56102;SDS011;41970;48.774;9.280;2022-08-07T00:25:57;2.60;;;1.30;;
56102;SDS011;41970;48.774;9.280;2022-08-07T00:28:24;2.47;;;1.20;;
56102;SDS011;41970;48.774;9.280;2022-08-07T00:30:50;2.97;;;1.33;;
56102;SDS011;41970;48.774;9.280;2022-08-07T00:33:16;2.30;;;2.10;;
56102;SDS011;41970;48.774;9.280;2022-08-07T00:35:42;2.63;;;1.67;;
56102;SDS011;41970;48.774;9.280;2022-08-07T00:38:08;2.37;;;1.87;;
56102;SDS011;41970;48.774;9.280;2022-08-07T00:40:34;1.63;;;1.53;;
56102;SDS011;41970;48.774;9.280;2022-08-07T00:43:01;1.70;;;1.60;;
56102;SDS011;41970;48.774;9.280;2022-08-07T00:45:27;2.73;;;1.33;;
56102;SDS011;41970;48.774;9.280;2022-08-07T00:47:53;1.90;;;1.13;;
56102;SDS011;41970;48.774;9.280;2022-08-07T00:50:19;1.50;;;1.40;;
56102;SDS011;41970;48.774;9.280;2022-08-07T00:52:45;1.80;;;1.33;;
56102;SDS011;41970;48.774;9.280;2022-08-07T00:55:11;1.50;;;1.40;;
56102;SDS011;41970;48.774;9.280;2022-08-07T00:57:37;1.93;;;1.67;;
56102;SDS011;41970;48.774;9.280;2022-08-07T01:00:04;1.83;;;1.70;;
56102;SDS011;41970;48.774;9.280;2022-08-07T01:02:32;1.40;;;1.30;;
56102;SDS011;41970;48.774;9.280;2022-08-07T01:04:58;1.73;;;1.47;;
56102;SDS011;41970;48.774;9.280;2022-08-07T01:07:25;1.60;;;1.50;;
56102;SDS011;41970;48.774;9.280;2022-08-07T01:09:51;1.90;;;1.40;;
56102;SDS011;41970;48.774;9.280;2022-08-07T01:12:17;4.27;;;1.90;;
56102;SDS011;41970;48.774;9.280;2022-08-07T01:14:44;4.23;;;1.70;;
56102;SDS011;41970;48.774;9.280;2022-08-07T01:17:11;1.97;;;1.27;;
56102;SDS011;41970;48.774;9.280;2022-08-07T01:19:37;4.00;;;1.83;;
56102;SDS011;41970;48.774;9.280;2022-08-07T01:22:03;2.03;;;1.40;;
56102;SDS011;41970;48.774;9.280;2022-08-07T01:24:30;1.50;;;1.10;;
56102;SDS011;41970;48.774;9.280;2022-08-07T01:26:56;1.40;;;1.30;;
56102;SDS011;41970;48.774;9.280;2022-08-07T01:29:24;1.33;;;1.23;;
56102;SDS011;41970;48.774;9.280;2022-08-07T01:31:52;1.30;;;1.20;;
56102;SDS011;41970;48.774;9.280;2022-08-07T01:34:19;1.80;;;1.53;;
56102;SDS011;41970;48.774;9.280;2022-08-07T01:36:46;2.40;;;1.50;;
56102;SDS011;41970;48.774;9.280;2022-08-07T01:39:13;1.73;;;1.60;;
56102;SDS011;41970;48.774;9.280;2022-08-07T01:41:40;1.27;;;1.17;;
56102;SDS011;41970;48.774;9.280;2022-08-07T01:44:08;1.60;;;1.40;;
56102;SDS011;41970;48.774;9.280;2022-08-07T01:46:36;2.33;;;1.50;;
56102;SDS011;41970;48.774;9.280;2022-08-07T01:49:03;1.40;;;1.30;;
56102;SDS011;41970;48.774;9.280;2022-08-07T01:51:29;1.80;;;1.70;;
56102;SDS011;41970;48.774;9.280;2022-08-07T01:53:57;1.40;;;1.30;;
56102;SDS011;41970;48.774;9.280;2022-08-07T01:56:32;1.90;;;1.43;;
56102;SDS011;41970;48.774;9.280;2022-08-07T01:59:08;1.57;;;1.47;;
56102;SDS011;41970;48.774;9.280;2022-08-07T02:01:41;3.93;;;1.43;;
56102;SDS011;41970;48.774;9.280;2022-08-07T02:04:36;2.23;;;1.60;;
56102;SDS011;41970;48.774;9.280;2022-08-07T02:07:19;1.30;;;1.20;;
56102;SDS011;41970;48.774;9.280;2022-08-07T02:09:48;1.93;;;1.73;;
56102;SDS011;41970;48.774;9.280;2022-08-07T02:12:17;1.50;;;1.30;;
56102;SDS011;41970;48.774;9.280;2022-08-07T02:14:45;2.00;;;1.50;;
56102;SDS011;41970;48.774;9.280;2022-08-07T02:17:15;1.50;;;1.33;;
56102;SDS011;41970;48.774;9.280;2022-08-07T02:19:43;1.93;;;1.40;;
56102;SDS011;41970;48.774;9.280;2022-08-07T02:22:13;1.73;;;1.63;;
56102;SDS011;41970;48.774;9.280;2022-08-07T02:24:41;1.60;;;1.50;;
56102;SDS011;41970;48.774;9.280;2022-08-07T02:27:09;2.87;;;1.67;;
56102;SDS011;41970;48.774;9.280;2022-08-07T02:29:40;2.33;;;1.30;;
56102;SDS011;41970;48.774;9.280;2022-08-07T02:32:07;1.80;;;1.60;;
56102;SDS011;41970;48.774;9.280;2022-08-07T02:34:35;1.83;;;1.57;;
56102;SDS011;41970;48.774;9.280;2022-08-07T02:37:03;2.40;;;1.60;;
56102;SDS011;41970;48.774;9.280;2022-08-07T02:39:33;2.03;;;1.60;;
56102;SDS011;41970;48.774;9.280;2022-08-07T02:42:02;2.13;;;1.93;;
56102;SDS011;41970;48.774;9.280;2022-08-07T02:44:30;1.60;;;1.50;;
56102;SDS011;41970;48.774;9.280;2022-08-07T02:46:57;3.07;;;1.47;;
56102;SDS011;41970;48.774;9.280;2022-08-07T02:49:24;1.77;;;1.53;;
56102;SDS011;41970;48.774;9.280;2022-08-07T02:51:50;2.93;;;1.40;;
56102;SDS011;41970;48.774;9.280;2022-08-07T02:54:19;2.00;;;1.60;;
56102;SDS011;41970;48.774;9.280;2022-08-07T02:56:48;2.10;;;2.00;;
56102;SDS011;41970;48.774;9.280;2022-08-07T02:59:16;1.70;;;1.60;;
56102;SDS011;41970;48.774;9.280;2022-08-07T03:01:43;2.00;;;1.50;;
56102;SDS011;41970;48.774;9.280;2022-08-07T03:04:10;1.80;;;1.70;;
56102;SDS011;41970;48.774;9.280;2022-08-07T03:06:42;1.73;;;1.57;;
56102;SDS011;41970;48.774;9.280;2022-08-07T03:09:09;1.90;;;1.70;;
56102;SDS011;41970;48.774;9.280;2022-08-07T03:11:38;1.80;;;1.60;;
56102;SDS011;41970;48.774;9.280;2022-08-07T03:14:05;1.73;;;1.63;;
56102;SDS011;41970;48.774;9.280;2022-08-07T03:16:32;1.60;;;1.50;;
56102;SDS011;41970;48.774;9.280;2022-08-07T03:19:01;3.20;;;2.13;;
56102;SDS011;41970;48.774;9.280;2022-08-07T03:21:27;1.83;;;1.73;;
56102;SDS011;41970;48.774;9.280;2022-08-07T03:23:54;3.43;;;2.00;;
56102;SDS011;41970;48.774;9.280;2022-08-07T03:26:30;1.70;;;1.60;;
56102;SDS011;41970;48.774;9.280;2022-08-07T03:28:58;1.80;;;1.70;;
56102;SDS011;41970;48.774;9.280;2022-08-07T03:31:27;2.03;;;1.90;;
56102;SDS011;41970;48.774;9.280;2022-08-07T03:33:54;1.60;;;1.50;;
56102;SDS011;41970;48.774;9.280;2022-08-07T03:36:23;1.70;;;1.60;;
56102;SDS011;41970;48.774;9.280;2022-08-07T03:38:51;1.90;;;1.80;;
56102;SDS011;41970;48.774;9.280;2022-08-07T03:41:19;1.90;;;1.80;;
56102;SDS011;41970;48.774;9.280;2022-08-07T03:43:45;2.20;;;1.90;;
56102;SDS011;41970;48.774;9.280;2022-08-07T03:46:12;1.93;;;1.83;;
56102;SDS011;41970;48.774;9.280;2022-08-07T03:48:39;2.50;;;1.70;;
56102;SDS011;41970;48.774;9.280;2022-08-07T03:51:06;1.50;;;1.40;;
56102;SDS011;41970;48.774;9.280;2022-08-07T03:53:32;2.10;;;1.73;;
56102;SDS011;41970;48.774;9.280;2022-08-07T03:55:58;1.70;;;1.60;;
56102;SDS011;41970;48.774;9.280;2022-08-07T03:58:26;1.87;;;1.70;;
56102;SDS011;41970;48.774;9.280;2022-08-07T04:00:54;2.17;;;2.07;;
56102;SDS011;41970;48.774;9.280;2022-08-07T04:03:21;1.60;;;1.50;;
56102;SDS011;41970;48.774;9.280;2022-08-07T04:05:47;2.10;;;1.60;;
56102;SDS011;41970;48.774;9.280;2022-08-07T04:08:14;2.93;;;1.90;;
56102;SDS011;41970;48.774;9.280;2022-08-07T04:10:41;2.20;;;2.00;;
56102;SDS011;41970;48.774;9.280;2022-08-07T04:13:11;1.63;;;1.53;;
56102;SDS011;41970;48.774;9.280;2022-08-07T04:15:37;1.60;;;1.50;;
56102;SDS011;41970;48.774;9.280;2022-08-07T04:18:04;2.00;;;1.90;;
56102;SDS011;41970;48.774;9.280;2022-08-07T04:20:30;1.83;;;1.73;;
56102;SDS011;41970;48.774;9.280;2022-08-07T04:22:57;1.97;;;1.83;;
56102;SDS011;41970;48.774;9.280;2022-08-07T04:25:24;4.00;;;1.63;;
56102;SDS011;41970;48.774;9.280;2022-08-07T04:27:51;2.67;;;2.27;;
56102;SDS011;41970;48.774;9.280;2022-08-07T04:30:18;2.03;;;1.70;;
56102;SDS011;41970;48.774;9.280;2022-08-07T04:32:43;2.60;;;1.67;;
56102;SDS011;41970;48.774;9.280;2022-08-07T04:35:10;2.30;;;2.10;;
56102;SDS011;41970;48.774;9.280;2022-08-07T04:37:37;1.77;;;1.67;;
56102;SDS011;41970;48.774;9.280;2022-08-07T04:40:04;2.37;;;2.17;;
56102;SDS011;41970;48.774;9.280;2022-08-07T04:42:30;2.57;;;1.90;;
56102;SDS011;41970;48.774;9.280;2022-08-07T04:45:00;2.33;;;2.23;;
56102;SDS011;41970;48.774;9.280;2022-08-07T04:52:52;3.70;;;1.90;;
56102;SDS011;41970;48.774;9.280;2022-08-07T05:00:32;2.27;;;2.07;;
56102;SDS011;41970;48.774;9.280;2022-08-07T05:03:22;2.20;;;2.03;;
56102;SDS011;41970;48.774;9.280;2022-08-07T05:06:09;2.17;;;2.07;;
56102;SDS011;41970;48.774;9.280;2022-08-07T05:08:58;2.90;;;1.90;;
56102;SDS011;41970;48.774;9.280;2022-08-07T05:11:57;2.53;;;2.33;;
56102;SDS011;41970;48.774;9.280;2022-08-07T05:14:31;2.10;;;2.00;;
56102;SDS011;41970;48.774;9.280;2022-08-07T05:17:01;5.87;;;2.40;;
56102;SDS011;41970;48.774;9.280;2022-08-07T05:19:36;2.60;;;2.40;;
56102;SDS011;41970;48.774;9.280;2022-08-07T05:22:07;2.20;;;2.10;;
56102;SDS011;41970;48.774;9.280;2022-08-07T05:24:34;2.60;;;2.40;;
56102;SDS011;41970;48.774;9.280;2022-08-07T05:27:01;2.57;;;2.30;;
56102;SDS011;41970;48.774;9.280;2022-08-07T05:29:28;2.27;;;2.07;;
56102;SDS011;41970;48.774;9.280;2022-08-07T05:31:56;4.50;;;2.57;;
56102;SDS011;41970;48.774;9.280;2022-08-07T05:34:23;5.07;;;3.20;;
56102;SDS011;41970;48.774;9.280;2022-08-07T05:36:51;2.50;;;2.20;;
56102;SDS011;41970;48.774;9.280;2022-08-07T05:39:19;3.03;;;2.80;;
56102;SDS011;41970;48.774;9.280;2022-08-07T05:41:46;2.63;;;2.43;;
56102;SDS011;41970;48.774;9.280;2022-08-07T05:44:14;3.30;;;2.37;;
56102;SDS011;41970;48.774;9.280;2022-08-07T05:46:43;2.90;;;2.70;;
56102;SDS011;41970;48.774;9.280;2022-08-07T05:49:10;2.40;;;2.00;;
56102;SDS011;41970;48.774;9.280;2022-08-07T05:51:36;3.57;;;3.27;;
56102;SDS011;41970;48.774;9.280;2022-08-07T05:54:03;2.60;;;2.40;;
56102;SDS011;41970;48.774;9.280;2022-08-07T05:56:32;3.20;;;3.00;;
56102;SDS011;41970;48.774;9.280;2022-08-07T05:59:01;2.60;;;2.40;;
56102;SDS011;41970;48.774;9.280;2022-08-07T06:01:29;2.73;;;2.53;;
56102;SDS011;41970;48.774;9.280;2022-08-07T06:03:57;6.83;;;3.53;;
56102;SDS011;41970;48.774;9.280;2022-08-07T06:06:24;4.63;;;4.23;;
56102;SDS011;41970;48.774;9.280;2022-08-07T06:08:51;4.20;;;3.90;;
56102;SDS011;41970;48.774;9.280;2022-08-07T06:11:18;5.27;;;3.40;;
56102;SDS011;41970;48.774;9.280;2022-08-07T06:13:44;3.43;;;3.03;;
56102;SDS011;41970;48.774;9.280;2022-08-07T06:16:10;4.83;;;4.43;;
56102;SDS011;41970;48.774;9.280;2022-08-07T06:18:39;4.67;;;4.27;;
56102;SDS011;41970;48.774;9.280;2022-08-07T06:21:06;4.07;;;3.70;;
56102;SDS011;41970;48.774;9.280;2022-08-07T06:23:32;3.70;;;3.40;;
56102;SDS011;41970;48.774;9.280;2022-08-07T06:25:58;3.80;;;3.50;;
56102;SDS011;41970;48.774;9.280;2022-08-07T06:28:24;3.87;;;3.57;;
56102;SDS011;41970;48.774;9.280;2022-08-07T06:30:51;3.93;;;3.53;;
56102;SDS011;41970;48.774;9.280;2022-08-07T06:33:17;3.93;;;3.63;;
56102;SDS011;41970;48.774;9.280;2022-08-07T06:35:43;4.10;;;3.30;;
56102;SDS011;41970;48.774;9.280;2022-08-07T06:38:09;3.10;;;2.90;;
56102;SDS011;41970;48.774;9.280;2022-08-07T06:40:39;3.60;;;3.30;;
56102;SDS011;41970;48.774;9.280;2022-08-07T06:43:18;3.27;;;3.07;;
56102;SDS011;41970;48.774;9.280;2022-08-07T06:45:47;3.47;;;3.17;;
56102;SDS011;41970;48.774;9.280;2022-08-07T06:48:13;3.83;;;3.53;;
56102;SDS011;41970;48.774;9.280;2022-08-07T06:50:40;3.23;;;3.03;;
56102;SDS011;41970;48.774;9.280;2022-08-07T06:53:09;3.13;;;2.83;;
56102;SDS011;41970;48.774;9.280;2022-08-07T06:55:36;2.80;;;2.60;;
56102;SDS011;41970;48.774;9.280;2022-08-07T06:58:04;4.20;;;3.73;;
56102;SDS011;41970;48.774;9.280;2022-08-07T07:00:35;3.50;;;3.20;;
56102;SDS011;41970;48.774;9.280;2022-08-07T07:03:03;3.10;;;2.80;;
56102;SDS011;41970;48.774;9.280;2022-08-07T07:05:30;2.37;;;2.17;;
56102;SDS011;41970;48.774;9.280;2022-08-07T07:07:56;2.53;;;2.33;;
56102;SDS011;41970;48.774;9.280;2022-08-07T07:10:28;2.70;;;2.50;;
56102;SDS011;41970;48.774;9.280;2022-08-07T07:13:16;5.87;;;3.17;;
56102;SDS011;41970;48.774;9.280;2022-08-07T07:15:47;3.03;;;2.73;;
56102;SDS011;41970;48.774;9.280;2022-08-07T07:18:27;3.20;;;2.90;;
56102;SDS011;41970;48.774;9.280;2022-08-07T07:21:00;4.30;;;2.47;;
56102;SDS011;41970;48.774;9.280;2022-08-07T07:23:30;2.37;;;2.20;;
56102;SDS011;41970;48.774;9.280;2022-08-07T07:26:01;2.20;;;2.07;;
56102;SDS011;41970;48.774;9.280;2022-08-07T07:28:36;2.20;;;2.00;;
56102;SDS011;41970;48.774;9.280;2022-08-07T07:31:10;3.40;;;2.43;;
56102;SDS011;41970;48.774;9.280;2022-08-07T07:34:15;2.00;;;1.90;;
56102;SDS011;41970;48.774;9.280;2022-08-07T07:36:45;2.03;;;1.47;;
56102;SDS011;41970;48.774;9.280;2022-08-07T07:39:13;2.67;;;2.10;;
56102;SDS011;41970;48.774;9.280;2022-08-07T07:41:40;2.80;;;2.20;;
56102;SDS011;41970;48.774;9.280;2022-08-07T07:44:12;3.20;;;1.73;;
56102;SDS011;41970;48.774;9.280;2022-08-07T07:46:40;1.90;;;1.80;;
56102;SDS011;41970;48.774;9.280;2022-08-07T07:49:07;1.70;;;1.60;;
56102;SDS011;41970;48.774;9.280;2022-08-07T07:51:35;2.43;;;2.00;;
56102;SDS011;41970;48.774;9.280;2022-08-07T07:54:03;2.17;;;1.97;;
56102;SDS011;41970;48.774;9.280;2022-08-07T07:56:31;2.83;;;1.90;;
56102;SDS011;41970;48.774;9.280;2022-08-07T07:59:00;2.73;;;1.77;;
56102;SDS011;41970;48.774;9.280;2022-08-07T08:01:31;1.80;;;1.70;;
56102;SDS011;41970;48.774;9.280;2022-08-07T08:03:59;1.87;;;1.77;;
56102;SDS011;41970;48.774;9.280;2022-08-07T08:06:28;1.60;;;1.43;;
56102;SDS011;41970;48.774;9.280;2022-08-07T08:08:57;2.00;;;1.60;;
56102;SDS011;41970;48.774;9.280;2022-08-07T08:11:25;1.83;;;1.73;;
56102;SDS011;41970;48.774;9.280;2022-08-07T08:13:52;2.00;;;1.80;;
56102;SDS011;41970;48.774;9.280;2022-08-07T08:16:18;2.03;;;1.63;;
56102;SDS011;41970;48.774;9.280;2022-08-07T08:18:46;2.10;;;1.97;;
56102;SDS011;41970;48.774;9.280;2022-08-07T08:21:15;3.30;;;1.70;;
56102;SDS011;41970;48.774;9.280;2022-08-07T08:24:01;3.20;;;2.10;;
56102;SDS011;41970;48.774;9.280;2022-08-07T08:26:48;1.70;;;1.60;;
56102;SDS011;41970;48.774;9.280;2022-08-07T08:29:59;1.90;;;1.80;;
56102;SDS011;41970;48.774;9.280;2022-08-07T08:32:31;2.83;;;1.63;;
56102;SDS011;41970;48.774;9.280;2022-08-07T08:35:00;1.87;;;1.60;;
56102;SDS011;41970;48.774;9.280;2022-08-07T08:37:28;2.17;;;1.97;;
56102;SDS011;41970;48.774;9.280;2022-08-07T08:39:58;3.17;;;1.70;;
56102;SDS011;41970;48.774;9.280;2022-08-07T08:42:46;1.23;;;1.13;;
56102;SDS011;41970;48.774;9.280;2022-08-07T08:45:20;1.47;;;1.20;;
56102;SDS011;41970;48.774;9.280;2022-08-07T08:48:16;1.40;;;1.30;;
56102;SDS011;41970;48.774;9.280;2022-08-07T08:50:50;6.47;;;1.40;;
56102;SDS011;41970;48.774;9.280;2022-08-07T08:55:58;1.37;;;1.20;;
56102;SDS011;41970;48.774;9.280;2022-08-07T09:07:05;1.73;;;1.03;;
56102;SDS011;41970;48.774;9.280;2022-08-07T09:09:40;2.47;;;1.33;;
56102;SDS011;41970;48.774;9.280;2022-08-07T09:21:17;2.13;;;1.60;;
56102;SDS011;41970;48.774;9.280;2022-08-07T09:26:54;1.90;;;1.50;;
56102;SDS011;41970;48.774;9.280;2022-08-07T09:32:18;1.33;;;1.23;;
56102;SDS011;41970;48.774;9.280;2022-08-07T09:35:12;1.50;;;1.40;;
56102;SDS011;41970;48.774;9.280;2022-08-07T09:54:58;1.37;;;1.27;;
56102;SDS011;41970;48.774;9.280;2022-08-07T10:14:01;1.23;;;1.10;;
56102;SDS011;41970;48.774;9.280;2022-08-07T10:25:08;1.40;;;1.10;;
56102;SDS011;41970;48.774;9.280;2022-08-07T10:30:17;2.70;;;1.00;;
56102;SDS011;41970;48.774;9.280;2022-08-07T10:36:13;1.00;;;0.90;;
56102;SDS011;41970;48.774;9.280;2022-08-07T10:39:08;1.57;;;0.80;;
56102;SDS011;41970;48.774;9.280;2022-08-07T10:41:44;1.50;;;1.13;;
56102;SDS011;41970;48.774;9.280;2022-08-07T10:44:33;1.40;;;1.20;;
56102;SDS011;41970;48.774;9.280;2022-08-07T10:50:23;1.60;;;1.20;;
56102;SDS011;41970;48.774;9.280;2022-08-07T10:53:30;1.20;;;1.10;;
56102;SDS011;41970;48.774;9.280;2022-08-07T10:56:09;1.67;;;1.07;;
56102;SDS011;41970;48.774;9.280;2022-08-07T10:58:52;2.50;;;1.43;;
56102;SDS011;41970;48.774;9.280;2022-08-07T11:01:24;1.30;;;1.20;;
56102;SDS011;41970;48.774;9.280;2022-08-07T11:07:39;1.40;;;1.20;;
56102;SDS011;41970;48.774;9.280;2022-08-07T11:09:42;1.50;;;1.40;;
56102;SDS011;41970;48.774;9.280;2022-08-07T11:12:21;1.20;;;1.10;;
56102;SDS011;41970;48.774;9.280;2022-08-07T11:15:05;1.17;;;1.00;;
56102;SDS011;41970;48.774;9.280;2022-08-07T11:17:53;1.47;;;1.10;;
56102;SDS011;41970;48.774;9.280;2022-08-07T11:20:52;3.07;;;1.20;;
56102;SDS011;41970;48.774;9.280;2022-08-07T11:23:25;1.20;;;1.00;;
56102;SDS011;41970;48.774;9.280;2022-08-07T11:28:52;1.00;;;0.90;;
56102;SDS011;41970;48.774;9.280;2022-08-07T11:31:23;2.93;;;1.63;;
56102;SDS011;41970;48.774;9.280;2022-08-07T11:45:17;2.27;;;1.30;;
56102;SDS011;41970;48.774;9.280;2022-08-07T11:56:44;1.40;;;1.30;;
56102;SDS011;41970;48.774;9.280;2022-08-07T12:02:03;1.77;;;1.30;;
56102;SDS011;41970;48.774;9.280;2022-08-07T12:07:25;1.30;;;1.00;;
56102;SDS011;41970;48.774;9.280;2022-08-07T12:10:01;1.20;;;1.10;;
56102;SDS011;41970;48.774;9.280;2022-08-07T12:15:25;1.37;;;1.27;;
56102;SDS011;41970;48.774;9.280;2022-08-07T12:18:02;1.40;;;1.20;;
56102;SDS011;41970;48.774;9.280;2022-08-07T12:21:10;1.30;;;1.20;;
56102;SDS011;41970;48.774;9.280;2022-08-07T12:23:43;1.63;;;1.27;;
56102;SDS011;41970;48.774;9.280;2022-08-07T12:29:11;1.70;;;1.17;;
56102;SDS011;41970;48.774;9.280;2022-08-07T12:32:02;2.50;;;2.30;;
56102;SDS011;41970;48.774;9.280;2022-08-07T12:34:38;1.17;;;0.80;;
56102;SDS011;41970;48.774;9.280;2022-08-07T12:37:10;1.13;;;1.00;;
56102;SDS011;41970;48.774;9.280;2022-08-07T12:39:40;1.67;;;1.57;;
56102;SDS011;41970;48.774;9.280;2022-08-07T12:42:09;3.30;;;1.03;;
56102;SDS011;41970;48.774;9.280;2022-08-07T12:44:37;1.60;;;1.20;;
56102;SDS011;41970;48.774;9.280;2022-08-07T12:52:55;1.20;;;1.10;;
56102;SDS011;41970;48.774;9.280;2022-08-07T12:55:42;1.93;;;1.47;;
56102;SDS011;41970;48.774;9.280;2022-08-07T12:58:15;1.70;;;1.20;;
56102;SDS011;41970;48.774;9.280;2022-08-07T13:01:05;2.00;;;1.17;;
56102;SDS011;41970;48.774;9.280;2022-08-07T13:09:05;3.00;;;1.57;;
56102;SDS011;41970;48.774;9.280;2022-08-07T13:11:57;1.43;;;1.33;;
56102;SDS011;41970;48.774;9.280;2022-08-07T13:25:58;1.50;;;1.40;;
56102;SDS011;41970;48.774;9.280;2022-08-07T13:28:47;1.50;;;1.40;;
56102;SDS011;41970;48.774;9.280;2022-08-07T13:31:24;1.73;;;1.50;;
56102;SDS011;41970;48.774;9.280;2022-08-07T13:34:15;1.40;;;1.30;;
56102;SDS011;41970;48.774;9.280;2022-08-07T13:37:19;2.73;;;1.20;;
56102;SDS011;41970;48.774;9.280;2022-08-07T13:39:50;1.83;;;1.37;;
56102;SDS011;41970;48.774;9.280;2022-08-07T13:42:43;1.97;;;1.50;;
56102;SDS011;41970;48.774;9.280;2022-08-07T13:45:13;5.03;;;1.40;;
56102;SDS011;41970;48.774;9.280;2022-08-07T13:47:41;2.00;;;1.27;;
56102;SDS011;41970;48.774;9.280;2022-08-07T13:50:08;4.30;;;1.77;;
56102;SDS011;41970;48.774;9.280;2022-08-07T13:52:38;1.10;;;1.00;;
56102;SDS011;41970;48.774;9.280;2022-08-07T13:55:10;1.30;;;1.20;;
56102;SDS011;41970;48.774;9.280;2022-08-07T13:57:39;2.10;;;1.40;;
56102;SDS011;41970;48.774;9.280;2022-08-07T14:00:08;1.30;;;1.20;;
56102;SDS011;41970;48.774;9.280;2022-08-07T14:02:35;2.80;;;1.47;;
56102;SDS011;41970;48.774;9.280;2022-08-07T14:05:06;1.60;;;1.20;;
56102;SDS011;41970;48.774;9.280;2022-08-07T14:07:44;2.50;;;1.87;;
56102;SDS011;41970;48.774;9.280;2022-08-07T14:10:11;2.07;;;1.20;;
56102;SDS011;41970;48.774;9.280;2022-08-07T14:12:49;1.30;;;1.20;;
56102;SDS011;41970;48.774;9.280;2022-08-07T14:15:38;1.80;;;1.57;;
56102;SDS011;41970;48.774;9.280;2022-08-07T14:18:19;1.30;;;1.20;;
56102;SDS011;41970;48.774;9.280;2022-08-07T14:20:52;1.40;;;1.23;;
56102;SDS011;41970;48.774;9.280;2022-08-07T14:23:26;1.37;;;1.27;;
56102;SDS011;41970;48.774;9.280;2022-08-07T14:26:16;1.50;;;1.40;;
56102;SDS011;41970;48.774;9.280;2022-08-07T14:28:46;1.83;;;1.00;;
56102;SDS011;41970;48.774;9.280;2022-08-07T14:31:13;1.30;;;1.20;;
56102;SDS011;41970;48.774;9.280;2022-08-07T14:33:41;1.33;;;1.23;;
56102;SDS011;41970;48.774;9.280;2022-08-07T14:36:07;1.87;;;1.60;;
56102;SDS011;41970;48.774;9.280;2022-08-07T14:38:36;1.50;;;1.40;;
56102;SDS011;41970;48.774;9.280;2022-08-07T14:41:05;1.40;;;1.30;;
56102;SDS011;41970;48.774;9.280;2022-08-07T14:43:37;1.53;;;1.37;;
56102;SDS011;41970;48.774;9.280;2022-08-07T14:46:05;1.93;;;1.30;;
56102;SDS011;41970;48.774;9.280;2022-08-07T14:48:34;1.80;;;1.70;;
56102;SDS011;41970;48.774;9.280;2022-08-07T14:51:10;1.60;;;1.50;;
56102;SDS011;41970;48.774;9.280;2022-08-07T14:53:42;1.33;;;1.23;;
56102;SDS011;41970;48.774;9.280;2022-08-07T14:56:09;1.50;;;1.40;;
56102;SDS011;41970;48.774;9.280;2022-08-07T14:58:42;1.73;;;1.20;;
56102;SDS011;41970;48.774;9.280;2022-08-07T15:01:13;1.50;;;1.40;;
56102;SDS011;41970;48.774;9.280;2022-08-07T15:03:41;1.67;;;1.57;;
56102;SDS011;41970;48.774;9.280;2022-08-07T15:06:09;2.80;;;1.30;;
56102;SDS011;41970;48.774;9.280;2022-08-07T15:08:37;2.20;;;1.30;;
56102;SDS011;41970;48.774;9.280;2022-08-07T15:11:14;1.87;;;1.60;;
56102;SDS011;41970;48.774;9.280;2022-08-07T15:14:04;2.13;;;1.77;;
56102;SDS011;41970;48.774;9.280;2022-08-07T15:16:44;1.70;;;1.60;;
56102;SDS011;41970;48.774;9.280;2022-08-07T15:19:17;1.30;;;1.20;;
56102;SDS011;41970;48.774;9.280;2022-08-07T15:21:50;1.73;;;1.20;;
56102;SDS011;41970;48.774;9.280;2022-08-07T15:24:23;1.60;;;1.50;;
56102;SDS011;41970;48.774;9.280;2022-08-07T15:27:13;1.47;;;1.37;;
56102;SDS011;41970;48.774;9.280;2022-08-07T15:29:44;1.50;;;1.40;;
56102;SDS011;41970;48.774;9.280;2022-08-07T15:32:14;1.43;;;1.33;;
56102;SDS011;41970;48.774;9.280;2022-08-07T15:34:47;1.53;;;1.43;;
56102;SDS011;41970;48.774;9.280;2022-08-07T15:37:17;1.67;;;1.30;;
56102;SDS011;41970;48.774;9.280;2022-08-07T15:39:54;1.20;;;1.10;;
56102;SDS011;41970;48.774;9.280;2022-08-07T15:44:55;2.03;;;1.60;;
56102;SDS011;41970;48.774;9.280;2022-08-07T15:47:22;2.13;;;1.40;;
56102;SDS011;41970;48.774;9.280;2022-08-07T15:49:52;1.60;;;1.50;;
56102;SDS011;41970;48.774;9.280;2022-08-07T15:52:23;1.67;;;1.57;;
56102;SDS011;41970;48.774;9.280;2022-08-07T15:54:51;1.87;;;1.10;;
56102;SDS011;41970;48.774;9.280;2022-08-07T15:57:25;1.87;;;1.50;;
56102;SDS011;41970;48.774;9.280;2022-08-07T15:59:56;1.87;;;1.63;;
56102;SDS011;41970;48.774;9.280;2022-08-07T16:02:25;1.60;;;1.50;;
56102;SDS011;41970;48.774;9.280;2022-08-07T16:05:01;1.50;;;1.40;;
56102;SDS011;41970;48.774;9.280;2022-08-07T16:07:31;1.87;;;1.40;;
56102;SDS011;41970;48.774;9.280;2022-08-07T16:10:15;2.87;;;1.80;;
56102;SDS011;41970;48.774;9.280;2022-08-07T16:16:09;1.43;;;1.33;;
56102;SDS011;41970;48.774;9.280;2022-08-07T16:21:52;2.27;;;1.80;;
56102;SDS011;41970;48.774;9.280;2022-08-07T16:24:33;1.50;;;1.40;;
56102;SDS011;41970;48.774;9.280;2022-08-07T16:30:03;1.40;;;1.30;;
56102;SDS011;41970;48.774;9.280;2022-08-07T16:32:34;2.30;;;1.33;;
56102;SDS011;41970;48.774;9.280;2022-08-07T16:36:13;1.43;;;1.33;;
56102;SDS011;41970;48.774;9.280;2022-08-07T16:38:29;1.50;;;1.40;;
56102;SDS011;41970;48.774;9.280;2022-08-07T16:47:10;2.30;;;1.60;;
56102;SDS011;41970;48.774;9.280;2022-08-07T17:09:34;1.40;;;1.20;;
56102;SDS011;41970;48.774;9.280;2022-08-07T17:12:06;1.37;;;1.27;;
56102;SDS011;41970;48.774;9.280;2022-08-07T17:14:45;1.73;;;1.30;;
56102;SDS011;41970;48.774;9.280;2022-08-07T17:22:56;1.60;;;1.50;;
56102;SDS011;41970;48.774;9.280;2022-08-07T17:25:40;2.70;;;1.70;;
56102;SDS011;41970;48.774;9.280;2022-08-07T17:28:34;1.87;;;1.77;;
56102;SDS011;41970;48.774;9.280;2022-08-07T17:31:17;1.60;;;1.50;;
56102;SDS011;41970;48.774;9.280;2022-08-07T17:33:49;1.57;;;1.47;;
56102;SDS011;41970;48.774;9.280;2022-08-07T17:36:27;1.67;;;1.40;;
56102;SDS011;41970;48.774;9.280;2022-08-07T17:42:00;1.43;;;1.33;;
56102;SDS011;41970;48.774;9.280;2022-08-07T17:44:54;1.63;;;1.53;;
56102;SDS011;41970;48.774;9.280;2022-08-07T17:53:07;2.20;;;1.53;;
56102;SDS011;41970;48.774;9.280;2022-08-07T17:58:41;1.43;;;1.33;;
56102;SDS011;41970;48.774;9.280;2022-08-07T18:04:22;1.50;;;1.40;;
56102;SDS011;41970;48.774;9.280;2022-08-07T18:07:00;1.47;;;1.37;;
56102;SDS011;41970;48.774;9.280;2022-08-07T18:09:40;1.87;;;1.70;;
56102;SDS011;41970;48.774;9.280;2022-08-07T18:15:07;1.93;;;1.60;;
56102;SDS011;41970;48.774;9.280;2022-08-07T18:17:48;1.83;;;1.47;;
56102;SDS011;41970;48.774;9.280;2022-08-07T18:20:26;1.83;;;1.33;;
56102;SDS011;41970;48.774;9.280;2022-08-07T18:22:57;1.60;;;1.50;;
56102;SDS011;41970;48.774;9.280;2022-08-07T18:25:30;1.97;;;1.77;;
56102;SDS011;41970;48.774;9.280;2022-08-07T18:28:05;1.50;;;1.40;;
56102;SDS011;41970;48.774;9.280;2022-08-07T18:36:26;1.37;;;1.27;;
56102;SDS011;41970;48.774;9.280;2022-08-07T18:42:15;2.10;;;1.90;;
56102;SDS011;41970;48.774;9.280;2022-08-07T18:45:07;1.73;;;1.63;;
56102;SDS011;41970;48.774;9.280;2022-08-07T18:50:36;1.20;;;1.00;;
56102;SDS011;41970;48.774;9.280;2022-08-07T18:58:36;1.20;;;1.10;;
56102;SDS011;41970;48.774;9.280;2022-08-07T19:01:38;1.37;;;1.27;;
56102;SDS011;41970;48.774;9.280;2022-08-07T19:04:12;1.60;;;1.50;;
56102;SDS011;41970;48.774;9.280;2022-08-07T19:06:52;2.30;;;1.37;;